Time;durP1;ratioP1;P1;durP2;ratioP2;P2;SDS_P1;SDS_P2;PMS_P1;PMS_P2;Temp;Humidity;BMP_temperature;BMP_pressure;BME280_temperature;BME280_humidity;BME280_pressure;Samples;Min_cycle;Max_cycle;Signal;HPM_P1;HPM_P2
2021/05/16 00:01:26;;;;;;;3.92;1.10;;;12.00;77.20;;;;;;10160346;28;20050;-62
2021/05/16 00:06:17;;;;;;;4.20;1.10;;;12.00;77.30;;;;;;10165535;28;20176;-59
2021/05/16 00:11:08;;;;;;;1.48;0.80;;;11.90;77.70;;;;;;10141168;28;20573;-63
2021/05/16 00:15:59;;;;;;;3.80;1.08;;;11.90;77.60;;;;;;10148348;28;20077;-58
2021/05/16 00:20:50;;;;;;;1.45;0.63;;;11.80;78.10;;;;;;10150102;28;20082;-61
2021/05/16 00:25:41;;;;;;;1.25;0.90;;;11.70;78.10;;;;;;10157812;28;20136;-61
2021/05/16 00:30:33;;;;;;;4.78;0.98;;;11.70;78.30;;;;;;10158094;28;20044;-69
2021/05/16 00:35:27;;;;;;;1.48;0.85;;;11.70;78.40;;;;;;10150058;28;20043;-58
2021/05/16 00:40:18;;;;;;;2.17;1.17;;;11.80;78.50;;;;;;10149729;28;20618;-57
2021/05/16 00:45:12;;;;;;;2.65;0.77;;;11.80;78.40;;;;;;10144569;28;20050;-63
2021/05/16 00:50:06;;;;;;;1.25;1.15;;;11.90;78.40;;;;;;10143069;28;20338;-64
2021/05/16 00:55:00;;;;;;;1.30;0.70;;;11.80;78.60;;;;;;10145014;28;20457;-61
2021/05/16 00:59:52;;;;;;;3.90;0.90;;;11.90;78.80;;;;;;10149994;28;20128;-56
2021/05/16 01:04:42;;;;;;;2.03;0.90;;;11.70;79.60;;;;;;10146353;28;20515;-57
2021/05/16 01:09:33;;;;;;;2.97;0.77;;;11.70;79.70;;;;;;10146274;28;20047;-67
2021/05/16 01:14:34;;;;;;;3.50;0.70;;;11.60;79.80;;;;;;10152695;28;20032;-67
2021/05/16 01:19:24;;;;;;;1.92;0.90;;;11.50;80.30;;;;;;10144921;28;20019;-61
2021/05/16 01:24:17;;;;;;;1.65;0.85;;;11.60;79.90;;;;;;10151197;28;20036;-59
2021/05/16 01:29:08;;;;;;;1.08;0.93;;;11.50;80.30;;;;;;10144787;28;21006;-57
2021/05/16 01:33:59;;;;;;;1.15;0.95;;;11.60;80.20;;;;;;10142125;28;20032;-63
2021/05/16 01:38:51;;;;;;;1.55;0.98;;;11.50;80.40;;;;;;10155470;28;20070;-64
2021/05/16 01:43:42;;;;;;;1.08;0.85;;;11.60;80.40;;;;;;10150609;28;20060;-62
2021/05/16 01:48:33;;;;;;;2.00;1.10;;;11.60;80.30;;;;;;10157175;28;20023;-65
2021/05/16 01:53:24;;;;;;;2.45;1.10;;;11.70;80.10;;;;;;10160141;28;20274;-58
2021/05/16 01:58:15;;;;;;;2.22;0.80;;;11.70;80.30;;;;;;10153563;28;20019;-63
2021/05/16 02:03:06;;;;;;;2.65;0.60;;;11.70;80.50;;;;;;10140348;28;20115;-62
2021/05/16 02:07:58;;;;;;;2.65;0.90;;;11.70;80.80;;;;;;10147005;28;20039;-62
2021/05/16 02:12:50;;;;;;;1.50;0.70;;;11.60;81.10;;;;;;10143731;28;20039;-67
2021/05/16 02:17:42;;;;;;;2.85;1.00;;;11.70;80.80;;;;;;10153531;28;20217;-61
2021/05/16 02:22:33;;;;;;;4.13;0.77;;;11.50;81.30;;;;;;10137273;28;20061;-64
2021/05/16 02:27:23;;;;;;;1.50;1.10;;;11.50;81.60;;;;;;10149405;28;20043;-61
2021/05/16 02:32:14;;;;;;;1.52;0.88;;;11.50;81.60;;;;;;10146722;28;20339;-56
2021/05/16 02:37:05;;;;;;;1.48;0.60;;;11.40;81.80;;;;;;10144898;28;20168;-63
2021/05/16 02:41:56;;;;;;;4.75;1.48;;;11.40;82.30;;;;;;10145240;28;20040;-57
2021/05/16 02:46:47;;;;;;;1.30;0.90;;;11.40;82.10;;;;;;10144276;28;20475;-63
2021/05/16 02:51:39;;;;;;;0.90;0.75;;;11.40;82.30;;;;;;10143403;28;20378;-57
2021/05/16 02:56:30;;;;;;;1.35;0.65;;;11.50;82.20;;;;;;10129165;28;20028;-58
2021/05/16 03:01:20;;;;;;;1.77;0.80;;;11.40;82.20;;;;;;10140055;28;20404;-62
2021/05/16 03:06:11;;;;;;;3.08;0.90;;;11.40;82.60;;;;;;10142812;28;20637;-58
2021/05/16 03:11:02;;;;;;;1.38;0.82;;;11.40;82.70;;;;;;10151254;28;20058;-61
2021/05/16 03:15:53;;;;;;;1.30;0.68;;;11.50;82.60;;;;;;10152015;28;21151;-64
2021/05/16 03:20:44;;;;;;;1.25;0.90;;;11.50;82.80;;;;;;10135312;28;20413;-54
2021/05/16 03:25:35;;;;;;;1.60;0.90;;;11.40;83.20;;;;;;10137490;28;20087;-57
2021/05/16 03:30:26;;;;;;;3.10;1.00;;;11.50;83.10;;;;;;10137826;28;20057;-55
2021/05/16 03:35:17;;;;;;;1.50;0.95;;;11.50;83.40;;;;;;10147749;28;20247;-58
2021/05/16 03:40:09;;;;;;;0.80;0.65;;;11.40;83.50;;;;;;10140498;28;20035;-58
2021/05/16 03:45:00;;;;;;;2.50;0.75;;;11.40;83.40;;;;;;10146395;28;20143;-57
2021/05/16 03:49:51;;;;;;;1.98;0.90;;;11.40;83.60;;;;;;10144996;28;20055;-57
2021/05/16 03:54:42;;;;;;;0.85;0.70;;;11.50;84.20;;;;;;10153229;28;20808;-57
2021/05/16 03:59:32;;;;;;;2.42;1.10;;;11.30;84.10;;;;;;10136567;28;20242;-62
2021/05/16 04:04:23;;;;;;;1.83;0.63;;;11.20;84.10;;;;;;10149527;28;20047;-52
2021/05/16 04:09:14;;;;;;;1.50;0.50;;;11.30;84.20;;;;;;10150565;28;20036;-55
2021/05/16 04:14:05;;;;;;;0.70;0.50;;;11.20;84.10;;;;;;10148905;28;20695;-53
2021/05/16 04:18:56;;;;;;;2.20;0.50;;;11.30;84.20;;;;;;10132792;28;20066;-63
2021/05/16 04:23:47;;;;;;;1.27;0.65;;;11.20;84.40;;;;;;10137813;28;20050;-62
2021/05/16 04:28:38;;;;;;;1.92;0.60;;;11.20;85.20;;;;;;10141236;28;20158;-56
2021/05/16 04:33:28;;;;;;;1.50;1.13;;;11.20;85.20;;;;;;10133334;28;20629;-64
2021/05/16 04:38:19;;;;;;;0.70;0.70;;;11.30;84.90;;;;;;10139453;28;20142;-56
2021/05/16 04:43:12;;;;;;;2.50;1.23;;;11.40;85.00;;;;;;10149721;28;20096;-56
2021/05/16 04:48:03;;;;;;;1.50;1.10;;;11.50;85.10;;;;;;10139063;28;20117;-58
2021/05/16 04:52:53;;;;;;;1.38;0.90;;;11.60;85.00;;;;;;10138154;28;20565;-59
2021/05/16 04:57:45;;;;;;;2.88;0.75;;;11.60;85.20;;;;;;10134636;28;20085;-58
2021/05/16 05:02:37;;;;;;;1.30;0.60;;;11.70;85.50;;;;;;10137715;28;20406;-55
2021/05/16 05:07:30;;;;;;;1.08;0.55;;;11.80;85.30;;;;;;10132165;28;20042;-54
2021/05/16 05:12:20;;;;;;;2.38;0.55;;;11.90;86.00;;;;;;10130903;28;20111;-58
2021/05/16 05:17:11;;;;;;;2.50;0.55;;;11.90;85.20;;;;;;10138169;28;20039;-61
2021/05/16 05:22:02;;;;;;;2.20;0.70;;;12.00;85.10;;;;;;10137619;28;20043;-55
2021/05/16 05:26:58;;;;;;;3.13;1.63;;;12.20;84.90;;;;;;10139555;28;20039;-55
2021/05/16 05:31:50;;;;;;;1.02;0.65;;;12.10;85.20;;;;;;10139565;28;22109;-58
2021/05/16 05:36:40;;;;;;;4.72;1.00;;;12.20;85.20;;;;;;10134425;28;20034;-63
2021/05/16 05:41:32;;;;;;;2.08;0.60;;;12.20;85.10;;;;;;10141078;28;20481;-55
2021/05/16 05:46:23;;;;;;;1.65;0.73;;;12.10;85.30;;;;;;10125985;28;20589;-60
2021/05/16 05:51:14;;;;;;;2.00;0.80;;;12.10;85.40;;;;;;10136560;28;20078;-58
2021/05/16 05:56:05;;;;;;;1.67;1.00;;;12.10;85.30;;;;;;10137469;28;20035;-56
2021/05/16 06:00:56;;;;;;;1.55;1.05;;;12.20;85.20;;;;;;10131651;28;20078;-55
2021/05/16 06:05:46;;;;;;;1.30;0.70;;;12.10;85.10;;;;;;10148752;28;20562;-55
2021/05/16 06:10:37;;;;;;;0.45;0.45;;;12.10;85.50;;;;;;10131772;27;20452;-58
2021/05/16 06:15:28;;;;;;;1.33;0.77;;;12.10;85.20;;;;;;10136112;28;20030;-56
2021/05/16 06:20:19;;;;;;;1.38;0.57;;;12.10;85.40;;;;;;10132155;28;20055;-55
2021/05/16 06:25:10;;;;;;;3.00;1.17;;;12.30;85.30;;;;;;10142541;28;20119;-61
2021/05/16 06:30:02;;;;;;;1.25;0.82;;;12.40;85.00;;;;;;10141355;28;20035;-59
2021/05/16 06:34:53;;;;;;;4.53;0.65;;;12.60;84.90;;;;;;10139616;28;20040;-54
2021/05/16 06:39:44;;;;;;;1.60;1.00;;;12.70;84.50;;;;;;10143441;28;20023;-59
2021/05/16 06:44:34;;;;;;;3.22;0.80;;;12.70;84.40;;;;;;10141401;28;20067;-59
2021/05/16 06:49:26;;;;;;;2.20;1.00;;;12.90;84.30;;;;;;10141497;28;20729;-56
2021/05/16 06:54:17;;;;;;;2.10;0.80;;;13.10;84.00;;;;;;10143265;28;20119;-57
2021/05/16 06:59:08;;;;;;;2.05;1.05;;;13.10;83.90;;;;;;10144640;28;20305;-70
2021/05/16 07:03:59;;;;;;;2.35;0.70;;;13.20;83.90;;;;;;10139459;28;20087;-59
2021/05/16 07:08:50;;;;;;;1.23;0.70;;;13.20;83.60;;;;;;10140658;28;20036;-65
2021/05/16 07:13:41;;;;;;;1.77;0.93;;;13.30;83.40;;;;;;10146829;28;20516;-63
2021/05/16 07:18:32;;;;;;;3.55;0.75;;;13.50;82.80;;;;;;10140091;28;20046;-58
2021/05/16 07:23:23;;;;;;;1.58;0.98;;;13.70;82.20;;;;;;10144283;28;20032;-59
2021/05/16 07:28:13;;;;;;;1.88;0.60;;;13.90;81.70;;;;;;10135154;28;20039;-64
2021/05/16 07:33:04;;;;;;;3.08;1.00;;;14.10;81.30;;;;;;10135762;28;20028;-61
2021/05/16 07:37:55;;;;;;;3.88;1.17;;;14.20;81.00;;;;;;10137802;28;20601;-61
2021/05/16 07:42:47;;;;;;;1.58;0.90;;;14.40;80.80;;;;;;10145215;28;20032;-57
2021/05/16 07:47:39;;;;;;;3.15;1.10;;;14.60;80.20;;;;;;10139196;28;20642;-60
2021/05/16 07:52:29;;;;;;;2.13;1.08;;;14.90;79.40;;;;;;10151992;28;20032;-61
2021/05/16 07:57:20;;;;;;;2.05;0.93;;;14.90;79.20;;;;;;10147895;28;20451;-59
2021/05/16 08:02:11;;;;;;;3.15;1.00;;;15.00;79.10;;;;;;10143065;28;20035;-65
2021/05/16 08:07:04;;;;;;;2.63;1.10;;;15.20;78.60;;;;;;10144451;28;20847;-70
2021/05/16 08:11:55;;;;;;;3.55;1.40;;;15.40;78.20;;;;;;10147205;28;20318;-61
2021/05/16 08:16:46;;;;;;;2.55;1.02;;;15.40;77.50;;;;;;10147822;28;20675;-64
2021/05/16 08:21:38;;;;;;;2.55;1.00;;;15.30;77.50;;;;;;10137318;28;20529;-56
2021/05/16 08:26:29;;;;;;;3.22;0.90;;;15.30;76.70;;;;;;10146742;28;20031;-59
2021/05/16 08:31:20;;;;;;;4.30;1.13;;;15.30;76.20;;;;;;10142284;28;20066;-54
2021/05/16 08:36:10;;;;;;;3.63;1.88;;;15.70;75.20;;;;;;10145090;28;20043;-61
2021/05/16 08:41:02;;;;;;;3.63;1.10;;;15.80;74.30;;;;;;10147563;28;20035;-57
2021/05/16 08:45:54;;;;;;;3.78;1.02;;;15.90;74.10;;;;;;10142741;28;20408;-62
2021/05/16 08:50:45;;;;;;;2.60;1.20;;;16.20;73.30;;;;;;10143099;28;20089;-54
2021/05/16 08:55:37;;;;;;;2.92;1.48;;;16.10;72.80;;;;;;10134103;28;20702;-57
2021/05/16 09:00:28;;;;;;;4.72;1.42;;;16.00;72.60;;;;;;10145858;28;20032;-53
2021/05/16 09:05:26;;;;;;;2.20;1.25;;;16.20;72.00;;;;;;10143696;28;20032;-56
2021/05/16 09:10:24;;;;;;;3.28;1.30;;;16.20;70.60;;;;;;10143532;28;20043;-58
2021/05/16 09:15:19;;;;;;;3.80;1.50;;;16.50;70.70;;;;;;10142210;28;20036;-60
2021/05/16 09:20:11;;;;;;;1.80;0.85;;;16.80;70.10;;;;;;10137715;28;20043;-54
2021/05/16 09:25:06;;;;;;;3.72;1.98;;;16.60;68.60;;;;;;10136071;28;20032;-58
2021/05/16 09:29:57;;;;;;;7.78;1.52;;;17.10;68.40;;;;;;10137401;28;20135;-61
2021/05/16 09:34:48;;;;;;;2.38;0.90;;;16.90;68.40;;;;;;10136896;28;20036;-57
2021/05/16 09:39:39;;;;;;;3.30;1.60;;;16.70;67.70;;;;;;10145674;28;20486;-54
2021/05/16 09:44:34;;;;;;;1.92;1.50;;;16.70;67.60;;;;;;10139077;28;20048;-59
2021/05/16 09:49:25;;;;;;;2.65;0.95;;;16.70;67.10;;;;;;10133045;28;20064;-60
2021/05/16 09:54:16;;;;;;;2.40;0.95;;;16.80;66.40;;;;;;10147636;28;20412;-63
2021/05/16 09:59:09;;;;;;;1.48;1.00;;;17.00;65.60;;;;;;10131293;28;21425;-60
2021/05/16 10:04:03;;;;;;;2.10;1.05;;;16.90;65.10;;;;;;10138537;28;20081;-67
2021/05/16 10:08:55;;;;;;;3.90;1.42;;;17.40;64.50;;;;;;10136129;28;20035;-59
2021/05/16 10:14:04;;;;;;;5.97;1.70;;;17.90;63.60;;;;;;10136440;28;20434;-60
2021/05/16 10:18:56;;;;;;;1.90;1.38;;;17.60;62.10;;;;;;10135480;28;20454;-58
2021/05/16 10:23:47;;;;;;;2.30;1.45;;;17.20;63.80;;;;;;10129030;28;20024;-57
2021/05/16 10:29:03;;;;;;;3.60;1.52;;;17.00;63.70;;;;;;10136364;28;20686;-55
2021/05/16 10:33:54;;;;;;;3.25;1.52;;;17.20;62.30;;;;;;10135032;28;20037;-57
2021/05/16 10:38:46;;;;;;;4.70;1.70;;;17.50;62.40;;;;;;10129072;28;20683;-56
2021/05/16 10:43:37;;;;;;;3.65;1.13;;;17.60;61.70;;;;;;10131164;28;20047;-58
2021/05/16 10:48:34;;;;;;;4.78;1.25;;;17.90;61.30;;;;;;10128191;28;20048;-57
2021/05/16 10:53:33;;;;;;;5.03;1.73;;;18.30;60.40;;;;;;10137370;28;20204;-60
2021/05/16 10:58:33;;;;;;;2.63;1.42;;;18.40;59.80;;;;;;10138143;28;20063;-54
2021/05/16 11:03:48;;;;;;;2.90;1.40;;;18.40;59.80;;;;;;10118396;28;20028;-62
2021/05/16 11:08:38;;;;;;;1.85;1.10;;;18.10;60.20;;;;;;10127127;28;20081;-61
2021/05/16 11:13:31;;;;;;;2.70;0.82;;;17.80;60.80;;;;;;10128919;28;20047;-60
2021/05/16 11:18:23;;;;;;;2.17;0.88;;;17.80;60.90;;;;;;10133649;28;20501;-62
2021/05/16 11:23:31;;;;;;;2.50;1.02;;;18.40;59.80;;;;;;10135088;28;20547;-60
2021/05/16 11:28:23;;;;;;;4.38;1.38;;;18.60;58.30;;;;;;10149428;28;20035;-62
2021/05/16 11:33:31;;;;;;;6.25;1.52;;;18.30;60.20;;;;;;10137424;28;20632;-57
2021/05/16 11:38:26;;;;;;;5.72;1.67;;;17.70;59.80;;;;;;10143957;28;20020;-54
2021/05/16 11:43:16;;;;;;;1.48;0.73;;;17.60;59.90;;;;;;10140714;28;20561;-54
2021/05/16 11:48:24;;;;;;;1.92;0.90;;;17.40;59.90;;;;;;10149669;28;20058;-58
2021/05/16 11:53:22;;;;;;;3.25;0.95;;;17.30;59.70;;;;;;10143640;28;20426;-56
2021/05/16 11:58:13;;;;;;;2.40;0.90;;;17.40;59.40;;;;;;10148662;28;20031;-64
2021/05/16 12:03:12;;;;;;;3.22;1.08;;;17.40;59.70;;;;;;10145445;28;20406;-56
2021/05/16 12:08:24;;;;;;;1.42;0.90;;;17.20;60.10;;;;;;10139329;28;20074;-61
2021/05/16 12:13:22;;;;;;;4.20;1.23;;;17.20;60.20;;;;;;10144114;28;20466;-57
2021/05/16 12:18:24;;;;;;;3.22;0.80;;;17.70;59.70;;;;;;10140190;28;21182;-58
2021/05/16 12:23:19;;;;;;;4.55;0.98;;;17.80;59.50;;;;;;10141149;28;20048;-60
2021/05/16 12:28:10;;;;;;;3.30;1.08;;;17.80;59.00;;;;;;10144180;28;20043;-56
2021/05/16 12:33:00;;;;;;;4.20;1.13;;;18.00;58.60;;;;;;10136009;28;20511;-58
2021/05/16 12:37:51;;;;;;;2.08;1.00;;;18.10;58.40;;;;;;10139702;28;20068;-60
2021/05/16 12:42:44;;;;;;;1.45;0.80;;;18.00;58.40;;;;;;10142392;28;20311;-68
2021/05/16 12:47:35;;;;;;;2.83;0.73;;;17.90;58.10;;;;;;10140633;27;20050;-60
2021/05/16 12:52:26;;;;;;;2.75;0.73;;;17.70;58.50;;;;;;10143081;28;20039;-61
2021/05/16 12:57:28;;;;;;;1.42;0.73;;;17.80;58.20;;;;;;10145116;28;20110;-64
2021/05/16 13:02:19;;;;;;;2.92;0.75;;;18.60;57.30;;;;;;10148271;28;20035;-58
2021/05/16 13:07:11;;;;;;;1.85;0.90;;;18.80;56.80;;;;;;10141941;28;20048;-63
2021/05/16 13:12:03;;;;;;;2.28;0.60;;;18.70;56.50;;;;;;10141966;28;20063;-60
2021/05/16 13:17:17;;;;;;;2.13;0.75;;;18.30;56.80;;;;;;10141512;28;20421;-58
2021/05/16 13:22:33;;;;;;;2.47;0.52;;;17.90;56.20;;;;;;10141338;28;20442;-59
2021/05/16 13:27:24;;;;;;;1.45;0.75;;;17.40;56.30;;;;;;10136273;28;20093;-59
2021/05/16 13:32:18;;;;;;;0.70;0.57;;;17.10;56.80;;;;;;10139340;28;20080;-57
2021/05/16 13:37:09;;;;;;;1.85;0.82;;;17.10;56.50;;;;;;10142459;28;20537;-59
2021/05/16 13:42:07;;;;;;;2.25;0.80;;;17.30;56.30;;;;;;10133732;28;20031;-61
2021/05/16 13:46:59;;;;;;;1.17;0.65;;;18.30;55.20;;;;;;10126783;28;20051;-61
2021/05/16 13:51:50;;;;;;;1.77;0.70;;;19.10;53.60;;;;;;10136328;28;20036;-60
2021/05/16 13:56:41;;;;;;;1.33;0.90;;;18.80;54.90;;;;;;10130468;28;21474;-59
2021/05/16 14:01:32;;;;;;;2.78;0.73;;;18.30;55.10;;;;;;10135484;28;20398;-60
2021/05/16 14:06:23;;;;;;;3.00;0.70;;;18.20;55.50;;;;;;10143511;28;20546;-64
2021/05/16 14:11:14;;;;;;;0.70;0.50;;;18.30;55.70;;;;;;10135419;28;20133;-69
2021/05/16 14:16:05;;;;;;;1.20;0.68;;;18.90;54.00;;;;;;10135345;28;20039;-62
2021/05/16 14:20:56;;;;;;;1.42;0.80;;;18.90;53.90;;;;;;10134251;28;20887;-65
2021/05/16 14:25:47;;;;;;;1.05;0.50;;;19.20;54.00;;;;;;10134969;28;20036;-63
2021/05/16 14:30:42;;;;;;;1.23;0.40;;;19.50;53.20;;;;;;10134247;28;20117;-59
2021/05/16 14:35:35;;;;;;;3.40;0.70;;;19.80;53.30;;;;;;10124785;28;20255;-61
2021/05/16 14:40:26;;;;;;;0.90;0.70;;;19.20;54.00;;;;;;10138456;28;21218;-61
2021/05/16 14:45:17;;;;;;;0.65;0.50;;;18.90;54.50;;;;;;10135555;28;20075;-59
2021/05/16 14:50:10;;;;;;;3.25;0.60;;;18.90;54.60;;;;;;10134816;28;20044;-59
2021/05/16 14:55:01;;;;;;;3.60;2.05;;;19.30;54.00;;;;;;10135051;28;20983;-61
2021/05/16 14:59:51;;;;;;;1.02;0.63;;;19.60;53.70;;;;;;10129589;28;20840;-59
2021/05/16 15:04:43;;;;;;;1.33;0.63;;;19.30;53.90;;;;;;10142648;28;20066;-59
2021/05/16 15:09:34;;;;;;;4.82;1.88;;;18.90;54.50;;;;;;10144789;28;20114;-59
2021/05/16 15:14:25;;;;;;;2.95;0.80;;;18.50;55.10;;;;;;10131348;28;20162;-61
2021/05/16 15:19:16;;;;;;;1.13;0.47;;;18.40;55.50;;;;;;10142346;28;20032;-60
2021/05/16 15:24:11;;;;;;;0.82;0.57;;;18.40;55.70;;;;;;10134584;28;20051;-70
2021/05/16 15:29:02;;;;;;;2.28;1.02;;;18.50;55.90;;;;;;10141264;28;20036;-62
2021/05/16 15:33:53;;;;;;;1.33;0.70;;;20.20;53.90;;;;;;10142957;28;20533;-65
2021/05/16 15:38:44;;;;;;;1.95;0.50;;;20.70;52.70;;;;;;10143369;28;20032;-62
2021/05/16 15:43:35;;;;;;;1.85;0.50;;;20.00;53.90;;;;;;10136127;28;20092;-60
2021/05/16 15:48:26;;;;;;;1.00;0.70;;;19.70;54.40;;;;;;10131018;28;20044;-60
2021/05/16 15:53:16;;;;;;;1.75;0.88;;;22.10;51.60;;;;;;10137798;28;20040;-60
2021/05/16 15:58:08;;;;;;;1.13;0.63;;;23.80;48.50;;;;;;10135103;28;20455;-66
2021/05/16 16:03:00;;;;;;;0.50;0.40;;;24.00;48.10;;;;;;10138571;28;20156;-65
2021/05/16 16:07:51;;;;;;;1.80;1.13;;;21.30;52.00;;;;;;10140583;28;20048;-69
2021/05/16 16:12:43;;;;;;;2.80;0.60;;;19.70;54.50;;;;;;10141420;28;20085;-59
2021/05/16 16:17:36;;;;;;;1.25;0.82;;;20.00;54.00;;;;;;10137056;28;20039;-61
2021/05/16 16:22:28;;;;;;;0.85;0.60;;;19.50;54.00;;;;;;10143260;28;20035;-63
2021/05/16 16:27:18;;;;;;;1.63;0.70;;;19.10;54.40;;;;;;10142183;28;20520;-58
2021/05/16 16:32:09;;;;;;;2.10;0.70;;;18.70;55.10;;;;;;10137519;28;20040;-59
2021/05/16 16:37:00;;;;;;;2.00;0.73;;;18.30;55.50;;;;;;10143225;28;20425;-60
2021/05/16 16:41:50;;;;;;;0.60;0.50;;;18.10;56.00;;;;;;10148977;28;20125;-63
2021/05/16 16:46:42;;;;;;;0.85;0.55;;;17.80;56.60;;;;;;10141990;28;20052;-57
2021/05/16 16:51:33;;;;;;;1.77;0.82;;;17.40;57.20;;;;;;10138829;28;20054;-57
2021/05/16 16:56:24;;;;;;;1.80;0.80;;;17.10;57.60;;;;;;10139539;28;20026;-60
2021/05/16 17:01:15;;;;;;;2.47;0.68;;;17.00;57.90;;;;;;10145026;28;20055;-58
2021/05/16 17:06:06;;;;;;;1.65;1.15;;;17.00;58.00;;;;;;10140453;28;20289;-63
2021/05/16 17:10:56;;;;;;;1.05;0.47;;;16.80;58.70;;;;;;10151162;28;20076;-59
2021/05/16 17:15:47;;;;;;;2.42;0.70;;;16.70;59.10;;;;;;10140788;28;20511;-64
2021/05/16 17:20:40;;;;;;;1.35;0.57;;;16.60;59.60;;;;;;10142190;28;20638;-59
2021/05/16 17:25:33;;;;;;;1.38;0.88;;;16.50;60.10;;;;;;10141946;28;21123;-64
2021/05/16 17:30:25;;;;;;;1.55;0.75;;;16.40;60.30;;;;;;10140569;28;20101;-58
2021/05/16 17:35:16;;;;;;;1.63;0.95;;;16.30;61.00;;;;;;10140839;28;20031;-58
2021/05/16 17:40:09;;;;;;;2.33;0.70;;;16.20;61.60;;;;;;10128378;28;20081;-60
2021/05/16 17:45:03;;;;;;;1.13;0.70;;;16.10;62.10;;;;;;10138740;28;20076;-66
2021/05/16 17:49:54;;;;;;;1.55;0.80;;;16.00;62.80;;;;;;10138698;28;20036;-64
2021/05/16 17:54:45;;;;;;;2.67;0.65;;;15.70;63.60;;;;;;10139064;28;20031;-60
2021/05/16 17:59:36;;;;;;;0.73;0.65;;;15.40;65.40;;;;;;10139291;28;20055;-65
2021/05/16 18:04:26;;;;;;;1.15;0.70;;;14.60;68.80;;;;;;10140609;28;20098;-64
2021/05/16 18:09:19;;;;;;;2.15;0.68;;;14.00;70.10;;;;;;10131026;28;20033;-65
2021/05/16 18:14:13;;;;;;;1.42;0.77;;;13.50;72.10;;;;;;10141499;28;20023;-60
2021/05/16 18:19:06;;;;;;;1.10;0.60;;;13.50;72.20;;;;;;10135966;28;20035;-59
2021/05/16 18:23:57;;;;;;;2.20;0.95;;;13.40;72.50;;;;;;10135700;28;20026;-61
2021/05/16 18:28:47;;;;;;;2.15;1.55;;;13.50;72.20;;;;;;10140063;28;20079;-64
2021/05/16 18:33:39;;;;;;;0.80;0.60;;;13.80;72.00;;;;;;10137999;28;20046;-63
2021/05/16 18:38:30;;;;;;;1.95;1.02;;;14.00;71.90;;;;;;10142456;28;20042;-61
2021/05/16 18:43:21;;;;;;;1.52;1.10;;;14.00;71.80;;;;;;10138274;28;20047;-60
2021/05/16 18:48:13;;;;;;;5.13;2.22;;;14.10;72.50;;;;;;10145846;28;20070;-66
2021/05/16 18:53:05;;;;;;;7.13;2.10;;;14.00;73.00;;;;;;10141610;28;20402;-64
2021/05/16 18:57:55;;;;;;;1.65;1.38;;;14.00;73.50;;;;;;10138651;28;20116;-60
2021/05/16 19:02:46;;;;;;;2.75;0.88;;;13.80;74.20;;;;;;10140066;28;20101;-63
2021/05/16 19:07:38;;;;;;;5.43;1.92;;;13.80;74.80;;;;;;10141237;28;20594;-59
2021/05/16 19:12:29;;;;;;;4.13;1.40;;;13.70;75.50;;;;;;10146827;28;20027;-61
2021/05/16 19:17:20;;;;;;;3.83;2.13;;;13.80;76.00;;;;;;10131141;28;20097;-60
2021/05/16 19:22:11;;;;;;;1.90;1.10;;;13.70;76.30;;;;;;10139626;28;20147;-59
2021/05/16 19:27:02;;;;;;;1.08;0.85;;;13.60;76.60;;;;;;10137098;28;20040;-61
2021/05/16 19:31:53;;;;;;;1.75;0.77;;;13.60;77.00;;;;;;10135911;28;20398;-63
2021/05/16 19:36:45;;;;;;;2.80;0.60;;;13.50;77.30;;;;;;10135137;28;20046;-62
2021/05/16 19:41:36;;;;;;;2.38;0.50;;;13.60;77.50;;;;;;10142441;28;20473;-59
2021/05/16 19:46:28;;;;;;;1.52;0.70;;;13.60;77.90;;;;;;10139431;28;20581;-64
2021/05/16 19:51:19;;;;;;;0.73;0.50;;;13.50;78.30;;;;;;10151280;28;20056;-60
2021/05/16 19:56:10;;;;;;;0.82;0.50;;;13.50;78.60;;;;;;10149965;28;20115;-60
2021/05/16 20:01:00;;;;;;;2.95;0.52;;;13.50;78.30;;;;;;10145793;28;20545;-60
2021/05/16 20:05:51;;;;;;;1.73;0.73;;;13.60;78.60;;;;;;10149617;28;20036;-60
2021/05/16 20:10:42;;;;;;;1.60;0.88;;;13.50;78.90;;;;;;10147188;28;20028;-58
2021/05/16 20:15:34;;;;;;;1.00;0.60;;;13.40;79.20;;;;;;10145776;28;20118;-60
2021/05/16 20:20:25;;;;;;;1.58;0.75;;;13.30;79.60;;;;;;10147535;28;20057;-62
2021/05/16 20:25:18;;;;;;;3.92;1.13;;;13.30;79.50;;;;;;10152023;28;20119;-63
2021/05/16 20:30:25;;;;;;;0.85;0.47;;;13.40;79.30;;;;;;10145929;28;20023;-60
2021/05/16 20:35:16;;;;;;;;;;;13.40;79.50;;;;;;10149497;28;20638;-62
2021/05/16 20:40:10;;;;;;;1.65;0.47;;;13.30;79.50;;;;;;10142900;28;19915;-60
2021/05/16 20:45:01;;;;;;;1.52;0.70;;;13.30;79.10;;;;;;10151514;28;20084;-58
2021/05/16 20:49:52;;;;;;;2.10;0.98;;;13.30;79.40;;;;;;10144311;28;20020;-60
2021/05/16 20:54:43;;;;;;;0.82;0.43;;;13.30;79.30;;;;;;10143862;28;20100;-58
2021/05/16 20:59:33;;;;;;;1.35;1.25;;;13.30;79.30;;;;;;10133421;28;20520;-59
2021/05/16 21:04:24;;;;;;;0.40;0.22;;;13.30;79.60;;;;;;10141689;28;20027;-60
2021/05/16 21:09:15;;;;;;;0.20;0.20;;;13.30;79.30;;;;;;10132847;28;20562;-61
2021/05/16 21:14:05;;;;;;;0.80;0.40;;;13.30;79.50;;;;;;10135059;28;20037;-59
2021/05/16 21:18:57;;;;;;;0.73;0.30;;;13.30;79.30;;;;;;10144804;28;20035;-62
2021/05/16 21:23:47;;;;;;;1.15;0.57;;;13.20;79.30;;;;;;10143369;28;20071;-58
2021/05/16 21:28:38;;;;;;;1.25;0.40;;;13.10;79.30;;;;;;10144836;28;20319;-59
2021/05/16 21:33:30;;;;;;;2.38;1.13;;;13.10;79.30;;;;;;10145392;28;20062;-59
2021/05/16 21:38:21;;;;;;;0.88;0.32;;;13.10;79.50;;;;;;10137441;28;20035;-59
2021/05/16 21:43:12;;;;;;;0.82;0.40;;;13.10;79.50;;;;;;10149530;28;20063;-58
2021/05/16 21:48:04;;;;;;;2.28;0.43;;;13.10;79.30;;;;;;10140779;28;20373;-57
2021/05/16 21:52:55;;;;;;;2.67;0.40;;;13.10;79.30;;;;;;10129783;28;20051;-60
2021/05/16 21:57:47;;;;;;;5.65;1.05;;;13.10;79.10;;;;;;10133200;28;20455;-61
2021/05/16 22:02:37;;;;;;;2.95;1.35;;;13.00;79.10;;;;;;10134037;28;20576;-59
2021/05/16 22:07:28;;;;;;;1.42;1.27;;;13.00;79.20;;;;;;10132495;28;20036;-59
2021/05/16 22:12:19;;;;;;;0.77;0.40;;;13.00;79.10;;;;;;10141911;28;20048;-59
2021/05/16 22:17:10;;;;;;;3.22;1.10;;;13.00;79.00;;;;;;10132674;28;20358;-60
2021/05/16 22:22:01;;;;;;;3.15;1.63;;;13.00;79.00;;;;;;10135533;28;20028;-58
2021/05/16 22:26:51;;;;;;;2.58;0.75;;;13.00;78.90;;;;;;10134647;28;20524;-60
2021/05/16 22:31:42;;;;;;;1.48;0.40;;;13.00;78.70;;;;;;10137374;28;20032;-59
2021/05/16 22:36:33;;;;;;;0.63;0.52;;;13.00;78.80;;;;;;10146416;28;20028;-61
2021/05/16 22:41:24;;;;;;;0.73;0.40;;;13.10;78.70;;;;;;10141346;28;20117;-61
2021/05/16 22:46:15;;;;;;;1.17;0.60;;;13.10;78.30;;;;;;10140407;28;20546;-59
2021/05/16 22:51:05;;;;;;;0.45;0.20;;;13.00;78.10;;;;;;10136791;28;20287;-59
2021/05/16 22:55:56;;;;;;;0.45;0.30;;;13.00;77.90;;;;;;10132225;28;20424;-58
2021/05/16 23:00:47;;;;;;;0.40;0.40;;;13.10;77.70;;;;;;10136340;28;20452;-61
2021/05/16 23:05:38;;;;;;;0.50;0.30;;;13.10;77.30;;;;;;10134665;28;20085;-61
2021/05/16 23:10:29;;;;;;;0.88;0.50;;;13.10;77.30;;;;;;10138814;28;20036;-59
2021/05/16 23:15:20;;;;;;;6.43;0.50;;;13.10;77.20;;;;;;10139264;28;20053;-59
2021/05/16 23:20:12;;;;;;;0.82;0.25;;;13.10;77.00;;;;;;10145642;28;20019;-58
2021/05/16 23:25:03;;;;;;;0.88;0.50;;;13.10;77.30;;;;;;10143206;28;20150;-60
2021/05/16 23:29:54;;;;;;;0.47;0.30;;;13.00;77.40;;;;;;10147651;28;20514;-59
2021/05/16 23:34:47;;;;;;;1.52;0.38;;;12.90;77.70;;;;;;10142416;28;20041;-60
2021/05/16 23:39:38;;;;;;;0.57;0.57;;;12.90;77.80;;;;;;10143837;27;20080;-60
2021/05/16 23:44:28;;;;;;;1.77;0.40;;;12.90;77.60;;;;;;10136911;28;20052;-59
2021/05/16 23:49:19;;;;;;;0.70;0.43;;;13.00;77.70;;;;;;10142658;28;20057;-59
2021/05/16 23:54:11;;;;;;;1.20;0.50;;;12.90;77.90;;;;;;10144680;28;20731;-61
2021/05/16 23:59:02;;;;;;;0.52;0.43;;;12.90;77.70;;;;;;10134298;28;20694;-59
